Hollywood, FL

10:02 PM EST on November 27, 2014 (GMT -0500)
Fort Lauderdale-Hollywood International | Change Station
CLOSE
Current Station
Airport
Location: Ft Lauderdale,
Elevation: 10 ft
Nearby Weather Stations

Elev 10 ft 26.07 °N, 80.15 °W | Updated 9 minutes ago

Clear
Clear
64 °F
Feels Like 64 °F
N
5
Wind Variable Wind from WNW

Today
High -- | Low -- °F
--% Chance of Precip.
Yesterday
High -- | Low -- °F
Precip. -- in
6:48 AM 5:29 PM
Waxing Crescent, 35% visible
Pressure 30.19 in
Visibility 10.0 miles
Clouds Clear
Dew Point 51 °F
Humidity 63%
Rainfall 0.00 in
Snow Depth Not available.
UV 0 out of 12
Pollen 4.30 out of 12
Air Quality Not available.
Flu Activity Not available.
METAR KFLL 280253Z 30004KT 10SM CLR 18/11 A3019 RMK AO2 SLP224 T01780106 53005

More Conditions Fewer Conditions

Pressure 30.19 in
Visibility 10.0 miles
Clouds Clear
Dew Point 51 °F
Humidity 63%
Rainfall 0.00 in
Snow Depth Not available.
UV 0 out of 12
Pollen 4.30 out of 12
Air Quality Not available.
Flu Activity Not available.
METAR KFLL 280253Z 30004KT 10SM CLR 18/11 A3019 RMK AO2 SLP224 T01780106 53005

More Conditions Fewer Conditions

10-Day Weather Forecast

Almanac

Astronomy

Nov. 27, 2014 Rise Set
Actual Time
Civil Twilight
Nautical Twilight
Astronomical Twilight
Moon
Length of Visible Light
Length of Day
Tomorrow will be .
, % of the Moon is Illuminated

Today's Extremes

State Highs State Lows

Community

WunderPhotos

Upload Photos

1,774,166 photos uploaded!

WunderBlogs® & News

Nearby

Air Quality

  Air Quality AQ Index Pollutant
Not available.

Snow Depth

Station Depth Elevation

Earthquake Activity

City Distance Mag. Time & Date
Minimum magnitude displayed is 2.5.

Coastal Water Temperatures

Place Temperature

Nearby Weather Stations